Time;durP1;ratioP1;P1;durP2;ratioP2;P2;SDS_P1;SDS_P2;PMS_P1;PMS_P2;Temp;Humidity;BMP_temperature;BMP_pressure;BME280_temperature;BME280_humidity;BME280_pressure;Samples;Min_cycle;Max_cycle;Signal;HPM_P1;HPM_P2
2022/07/22 00:01:13;;;;;;;2.88;1.50;;;;;;;24.00;49.57;100645.31;2102166;28;20509;-77
2022/07/22 00:02:36;;;;;;;7.15;2.22;;;;;;;23.97;49.84;100647.25;2102456;28;20055;-76
2022/07/22 00:03:59;;;;;;;3.55;1.73;;;;;;;23.96;49.70;100640.97;2102334;28;20142;-76
2022/07/22 00:05:21;;;;;;;6.93;1.83;;;;;;;24.02;49.37;100645.25;2102390;28;20036;-77
2022/07/22 00:06:43;;;;;;;4.45;1.90;;;;;;;24.04;49.43;100643.34;2102233;28;20046;-77
2022/07/22 00:08:06;;;;;;;5.00;1.77;;;;;;;24.02;49.47;100643.44;2093908;28;20375;-76
2022/07/22 00:09:27;;;;;;;8.18;2.35;;;;;;;24.02;49.50;100642.56;2099531;28;20051;-76
2022/07/22 00:10:50;;;;;;;4.65;1.73;;;;;;;24.00;49.64;100641.75;2102353;28;20517;-76
2022/07/22 00:12:11;;;;;;;5.15;2.00;;;;;;;23.99;49.58;100642.69;2102142;28;20040;-76
2022/07/22 00:13:34;;;;;;;4.78;1.80;;;;;;;23.95;49.65;100639.25;2101982;28;20135;-76
2022/07/22 00:14:55;;;;;;;6.95;2.30;;;;;;;23.93;49.70;100637.53;2102269;28;20075;-77
2022/07/22 00:16:19;;;;;;;11.38;2.25;;;;;;;23.91;49.83;100642.13;2101736;28;20055;-76
2022/07/22 00:17:42;;;;;;;5.20;2.05;;;;;;;23.89;49.79;100634.09;2102182;28;20072;-76
2022/07/22 00:19:03;;;;;;;5.82;1.75;;;;;;;23.87;50.01;100635.97;2102209;28;20052;-76
2022/07/22 00:20:25;;;;;;;5.20;1.73;;;;;;;23.83;49.88;100646.00;2104647;28;20068;-77
2022/07/22 00:21:48;;;;;;;7.50;2.47;;;;;;;23.78;50.09;100637.22;2093744;28;20093;-76
2022/07/22 00:23:10;;;;;;;6.53;2.17;;;;;;;23.75;50.05;100634.69;2101935;28;20055;-76
2022/07/22 00:24:32;;;;;;;4.07;1.92;;;;;;;23.74;50.02;100630.22;2110364;28;20104;-76
2022/07/22 00:25:54;;;;;;;5.25;1.70;;;;;;;23.75;49.93;100633.78;2110247;28;20053;-76
2022/07/22 00:27:16;;;;;;;4.18;2.42;;;;;;;23.76;49.96;100631.00;2102332;28;20072;-76
2022/07/22 00:28:38;;;;;;;6.72;2.28;;;;;;;23.75;49.98;100648.16;2107529;28;20468;-76
2022/07/22 00:30:01;;;;;;;3.38;1.88;;;;;;;23.70;50.07;100651.94;2110108;28;20055;-77
2022/07/22 00:31:25;;;;;;;4.28;1.77;;;;;;;23.66;50.25;100642.25;2110582;28;20074;-77
2022/07/22 00:32:47;;;;;;;5.68;2.20;;;;;;;23.63;50.46;100640.53;2110496;28;20059;-77
2022/07/22 00:34:09;;;;;;;8.98;3.13;;;;;;;23.66;50.29;100634.16;2102103;28;20093;-77
2022/07/22 00:35:31;;;;;;;6.43;2.00;;;;;;;23.68;50.32;100633.16;2099589;28;20048;-76
2022/07/22 00:36:53;;;;;;;5.35;1.85;;;;;;;23.70;50.30;100644.75;2107365;28;20054;-77
2022/07/22 00:38:16;;;;;;;3.72;1.60;;;;;;;23.71;50.21;100646.50;2102053;28;20527;-77
2022/07/22 00:39:38;;;;;;;6.20;2.10;;;;;;;23.70;50.25;100639.34;2099490;28;20106;-77
2022/07/22 00:41:00;;;;;;;4.97;1.90;;;;;;;23.79;49.78;100646.19;2099538;28;20167;-77
2022/07/22 00:42:22;;;;;;;3.47;1.77;;;;;;;23.89;49.69;100644.00;2107836;28;20047;-77
2022/07/22 00:43:52;;;;;;;3.30;1.80;;;;;;;23.94;49.28;100653.66;2110240;28;20058;-77
2022/07/22 00:45:14;;;;;;;4.22;2.40;;;;;;;23.93;49.61;100645.63;2111462;28;20039;-77
2022/07/22 00:46:38;;;;;;;8.80;2.00;;;;;;;23.95;49.50;100649.16;2110258;28;20048;-77
2022/07/22 00:48:00;;;;;;;6.25;1.77;;;;;;;24.00;49.37;100644.44;2110630;28;20051;-76
2022/07/22 00:49:22;;;;;;;11.18;2.28;;;;;;;24.00;49.28;100649.84;2096291;28;20051;-77
2022/07/22 00:50:44;;;;;;;6.65;1.80;;;;;;;23.96;49.51;100645.53;2101843;28;20094;-77
2022/07/22 00:52:07;;;;;;;5.82;1.67;;;;;;;23.93;49.57;100645.63;2093864;28;20040;-77
2022/07/22 00:53:30;;;;;;;4.43;1.65;;;;;;;23.92;49.52;100646.56;2091103;28;20044;-77
2022/07/22 00:54:52;;;;;;;5.07;2.00;;;;;;;23.89;49.74;100652.09;2099551;28;20048;-77
2022/07/22 00:56:14;;;;;;;3.40;1.92;;;;;;;23.88;49.80;100643.13;2102288;28;20048;-76
2022/07/22 00:57:37;;;;;;;6.57;2.45;;;;;;;23.91;49.58;100647.50;2101719;28;20052;-76
2022/07/22 00:59:02;;;;;;;5.60;2.33;;;;;;;23.95;49.51;100651.84;2102117;28;20102;-77
2022/07/22 01:00:24;;;;;;;5.93;1.88;;;;;;;23.96;49.37;100645.53;2094128;28;20102;-76
2022/07/22 01:01:48;;;;;;;4.35;1.60;;;;;;;23.97;49.26;100658.91;2094811;28;20501;-77
2022/07/22 01:03:10;;;;;;;3.22;1.60;;;;;;;23.96;49.28;100648.22;2109635;28;20051;-77
2022/07/22 01:04:32;;;;;;;7.43;2.05;;;;;;;23.95;49.39;100654.56;2097758;28;20559;-76
2022/07/22 01:05:54;;;;;;;4.93;2.17;;;;;;;23.96;49.18;100649.06;2100866;28;20079;-77
2022/07/22 01:07:16;;;;;;;4.43;1.80;;;;;;;23.99;49.25;100648.06;2103579;28;20056;-77
2022/07/22 01:08:39;;;;;;;5.07;1.90;;;;;;;24.01;48.98;100644.38;2095265;28;20080;-77
2022/07/22 01:10:00;;;;;;;5.15;1.55;;;;;;;24.02;48.90;100647.97;2101004;28;20052;-77
2022/07/22 01:11:23;;;;;;;3.88;1.75;;;;;;;24.03;48.75;100645.19;2095417;28;20106;-76
2022/07/22 01:12:46;;;;;;;7.18;2.33;;;;;;;24.04;49.06;100646.06;2103587;28;20135;-77
2022/07/22 01:14:07;;;;;;;12.75;3.55;;;;;;;24.02;49.10;100645.25;2100312;28;20044;-76
2022/07/22 01:15:30;;;;;;;5.72;2.00;;;;;;;24.01;48.90;100648.91;2095287;28;20049;-76
2022/07/22 01:16:54;;;;;;;6.53;1.80;;;;;;;24.01;48.97;100640.81;2103639;28;20087;-77
2022/07/22 01:18:15;;;;;;;5.85;1.83;;;;;;;23.99;49.02;100648.94;2105999;28;20079;-77
2022/07/22 01:19:38;;;;;;;6.25;1.77;;;;;;;23.98;49.30;100649.00;2106504;28;20071;-77
2022/07/22 01:21:01;;;;;;;5.32;1.70;;;;;;;23.98;49.13;100646.31;2103566;28;20040;-76
2022/07/22 01:22:24;;;;;;;6.18;2.05;;;;;;;23.94;49.21;100648.28;2103436;28;20094;-77
2022/07/22 01:23:47;;;;;;;7.00;2.25;;;;;;;23.90;49.40;100643.03;2097752;28;20052;-76
2022/07/22 01:25:10;;;;;;;3.25;1.70;;;;;;;23.87;49.48;100640.50;2089400;28;20045;-77
2022/07/22 01:26:33;;;;;;;3.17;1.73;;;;;;;23.85;49.54;100645.94;2100461;28;20071;-76
2022/07/22 01:27:56;;;;;;;3.58;1.52;;;;;;;23.84;49.63;100645.06;2097750;28;20072;-77
2022/07/22 01:29:19;;;;;;;5.43;1.50;;;;;;;23.84;49.69;100642.38;2087008;28;20048;-76
2022/07/22 01:30:41;;;;;;;5.15;1.88;;;;;;;23.84;49.56;100652.28;2094916;28;20159;-77
2022/07/22 01:32:03;;;;;;;6.03;1.88;;;;;;;23.83;49.78;100654.09;2098086;28;20136;-79
2022/07/22 01:33:26;;;;;;;5.82;2.28;;;;;;;23.73;49.84;100643.75;2089116;28;20069;-77
2022/07/22 01:34:49;;;;;;;3.60;1.58;;;;;;;23.65;50.06;100646.75;2086739;28;20064;-77
2022/07/22 01:36:13;;;;;;;6.88;2.05;;;;;;;23.62;50.12;100646.88;2092753;28;20051;-77
2022/07/22 01:37:36;;;;;;;5.93;2.10;;;;;;;23.62;50.15;100654.09;2089373;28;20467;-76
2022/07/22 01:38:59;;;;;;;6.72;1.67;;;;;;;23.61;50.22;100650.53;2092782;28;20052;-77
2022/07/22 01:40:20;;;;;;;7.97;2.20;;;;;;;23.61;50.22;100650.53;2089293;28;20387;-76
2022/07/22 01:41:43;;;;;;;4.95;1.88;;;;;;;23.63;50.25;100654.00;2094801;28;20056;-77
2022/07/22 01:43:07;;;;;;;3.53;2.00;;;;;;;23.63;50.13;100648.63;2087032;28;20037;-78
2022/07/22 01:44:31;;;;;;;5.78;3.08;;;;;;;23.65;50.30;100646.75;2095022;28;20133;-77
2022/07/22 01:45:54;;;;;;;4.25;2.20;;;;;;;23.67;50.08;100652.97;2086958;28;20081;-76
2022/07/22 01:47:17;;;;;;;3.85;1.95;;;;;;;23.67;50.16;100655.66;2100651;28;20143;-77
2022/07/22 01:48:41;;;;;;;6.32;2.38;;;;;;;23.68;50.17;100651.16;2093164;28;20505;-78
2022/07/22 01:50:02;;;;;;;7.38;2.22;;;;;;;23.66;50.21;100651.22;2103431;28;20047;-76
2022/07/22 01:51:27;;;;;;;4.65;1.85;;;;;;;23.65;50.48;100649.44;2103589;28;20078;-77
2022/07/22 01:52:50;;;;;;;4.60;2.10;;;;;;;23.65;50.47;100656.66;2111772;28;20088;-76
2022/07/22 01:54:12;;;;;;;4.80;1.98;;;;;;;23.66;50.38;100653.91;2097174;28;20044;-76
2022/07/22 01:55:34;;;;;;;5.93;2.13;;;;;;;23.69;50.33;100652.91;2095039;28;20498;-77
2022/07/22 01:56:57;;;;;;;5.18;2.13;;;;;;;23.70;50.46;100651.94;2109071;28;20563;-77
2022/07/22 01:58:20;;;;;;;7.13;1.83;;;;;;;23.69;50.47;100642.13;2097224;28;20874;-76
2022/07/22 01:59:43;;;;;;;3.38;1.77;;;;;;;23.69;50.49;100653.78;2092523;28;20120;-77
2022/07/22 02:01:06;;;;;;;5.22;2.10;;;;;;;23.70;50.52;100643.84;2109050;28;20047;-76
2022/07/22 02:02:28;;;;;;;5.22;2.25;;;;;;;23.72;50.36;100642.88;2097125;28;20436;-77
2022/07/22 02:03:51;;;;;;;8.02;2.83;;;;;;;23.70;50.40;100644.75;2100768;28;20048;-77
2022/07/22 02:05:14;;;;;;;4.97;1.98;;;;;;;23.70;50.56;100647.44;2094872;28;20074;-77
2022/07/22 02:06:38;;;;;;;4.88;2.28;;;;;;;23.68;50.57;100649.34;2094751;28;20053;-77
2022/07/22 02:08:01;;;;;;;7.53;2.30;;;;;;;23.66;50.58;100639.53;2092343;28;20537;-77
2022/07/22 02:09:26;;;;;;;2.75;1.77;;;;;;;23.51;50.86;100643.72;2101683;28;20517;-78
2022/07/22 02:10:50;;;;;;;4.82;2.00;;;;;;;23.39;51.27;100650.44;2097270;28;20049;-77
2022/07/22 02:12:12;;;;;;;4.30;1.92;;;;;;;23.38;51.32;100655.88;2092400;28;20086;-77
2022/07/22 02:13:39;;;;;;;3.38;1.80;;;;;;;23.35;51.30;100654.22;2093096;28;20072;-77
2022/07/22 02:15:01;;;;;;;5.03;2.03;;;;;;;23.31;51.56;100649.84;2100129;28;20300;-76
2022/07/22 02:16:24;;;;;;;6.78;2.40;;;;;;;23.30;51.65;100656.19;2094911;28;20159;-77
2022/07/22 02:17:46;;;;;;;6.60;2.28;;;;;;;23.29;51.71;100649.06;2092452;28;20052;-77
2022/07/22 02:19:09;;;;;;;6.47;2.40;;;;;;;23.30;51.59;100653.47;2094703;28;20067;-76
2022/07/22 02:20:30;;;;;;;8.48;2.10;;;;;;;23.31;51.52;100654.38;2100345;28;20055;-77
2022/07/22 02:21:57;;;;;;;6.38;2.20;;;;;;;23.32;51.47;100648.91;2097286;28;20544;-77
2022/07/22 02:23:19;;;;;;;3.60;1.77;;;;;;;23.30;51.62;100650.78;2092206;28;20098;-76
2022/07/22 02:24:41;;;;;;;5.03;1.90;;;;;;;23.28;51.74;100649.13;2103074;28;20452;-77
2022/07/22 02:26:04;;;;;;;3.75;2.63;;;;;;;23.26;51.61;100654.56;2100589;28;20500;-77
2022/07/22 02:27:25;;;;;;;6.40;2.00;;;;;;;23.23;51.84;100649.28;2100093;28;20048;-77
2022/07/22 02:28:48;;;;;;;5.97;2.13;;;;;;;23.20;52.01;100651.22;2108176;28;20075;-77
2022/07/22 02:30:11;;;;;;;5.40;1.75;;;;;;;23.11;52.18;100652.44;2111442;28;20032;-77
2022/07/22 02:31:33;;;;;;;7.82;2.25;;;;;;;23.01;52.46;100654.59;2111416;28;20170;-77
2022/07/22 02:32:56;;;;;;;6.28;2.25;;;;;;;23.01;52.54;100651.03;2111238;28;20431;-76
2022/07/22 02:34:18;;;;;;;5.70;2.08;;;;;;;23.03;52.47;100652.75;2105585;28;20055;-77
2022/07/22 02:35:40;;;;;;;7.03;2.20;;;;;;;23.09;52.40;100646.25;2102841;28;20831;-77
2022/07/22 02:37:04;;;;;;;6.80;2.20;;;;;;;23.12;52.33;100648.81;2100188;28;20036;-77
2022/07/22 02:38:25;;;;;;;6.22;2.10;;;;;;;23.14;52.35;100656.84;2100407;28;20389;-76
2022/07/22 02:39:48;;;;;;;6.13;2.08;;;;;;;23.14;52.32;100655.03;2108487;28;20052;-77
2022/07/22 02:41:11;;;;;;;6.43;2.03;;;;;;;23.15;52.35;100653.22;2103173;28;20067;-77
2022/07/22 02:42:38;;;;;;;7.32;2.20;;;;;;;23.10;52.45;100649.81;2103604;28;20096;-77
2022/07/22 02:44:01;;;;;;;3.45;1.80;;;;;;;23.07;52.60;100650.81;2102630;28;20553;-77
2022/07/22 02:45:23;;;;;;;3.63;1.98;;;;;;;23.06;52.74;100643.66;2103057;28;20105;-76
2022/07/22 02:46:45;;;;;;;7.38;1.98;;;;;;;23.05;52.87;100650.84;2111297;28;20109;-76
2022/07/22 02:48:12;;;;;;;4.90;2.03;;;;;;;23.09;52.72;100650.75;2103204;28;20136;-77
2022/07/22 02:49:35;;;;;;;6.68;2.05;;;;;;;23.10;52.76;100649.81;2103072;28;20456;-77
2022/07/22 02:50:58;;;;;;;5.43;2.20;;;;;;;23.09;52.82;100653.44;2094483;28;20053;-77
2022/07/22 02:52:24;;;;;;;6.32;2.10;;;;;;;23.10;53.01;100652.50;2101016;28;20051;-77
2022/07/22 02:53:46;;;;;;;7.45;2.55;;;;;;;23.10;52.99;100652.50;2094443;28;20133;-77
2022/07/22 02:55:09;;;;;;;6.22;2.45;;;;;;;23.11;53.18;100654.25;2100094;28;20059;-77
2022/07/22 02:56:32;;;;;;;6.55;2.10;;;;;;;23.07;53.22;100653.50;2102851;28;20489;-77
2022/07/22 02:57:54;;;;;;;5.15;2.13;;;;;;;23.01;53.26;100654.59;2094498;28;20083;-77
2022/07/22 02:59:17;;;;;;;9.25;2.55;;;;;;;22.94;53.49;100660.28;2100045;28;20146;-77
2022/07/22 03:00:39;;;;;;;6.20;1.98;;;;;;;22.95;53.71;100659.34;2094409;28;20051;-77
2022/07/22 03:02:02;;;;;;;8.10;2.13;;;;;;;22.92;53.77;100654.06;2091772;28;20166;-77
2022/07/22 03:03:25;;;;;;;5.85;2.45;;;;;;;22.79;53.87;100653.63;2100276;28;20139;-77
2022/07/22 03:04:48;;;;;;;4.05;2.00;;;;;;;22.67;54.14;100657.63;2096787;28;20094;-77
2022/07/22 03:06:10;;;;;;;4.35;2.13;;;;;;;22.63;54.41;100657.78;2094470;28;20054;-78
2022/07/22 03:07:39;;;;;;;5.25;2.08;;;;;;;22.65;54.35;100666.66;2101114;28;20382;-77
2022/07/22 03:09:04;;;;;;;4.82;2.35;;;;;;;22.62;54.45;100659.59;2096994;28;20409;-77
2022/07/22 03:10:28;;;;;;;3.85;1.92;;;;;;;22.56;54.52;100669.69;2094717;28;20505;-77
2022/07/22 03:11:50;;;;;;;6.93;2.80;;;;;;;22.55;54.60;100668.81;2099614;28;20047;-77
2022/07/22 03:13:12;;;;;;;7.03;2.30;;;;;;;22.58;54.76;100659.75;2096704;28;20056;-77
2022/07/22 03:14:34;;;;;;;6.25;1.90;;;;;;;22.63;54.90;100669.44;2094485;28;20143;-77
2022/07/22 03:15:56;;;;;;;6.90;2.70;;;;;;;22.66;55.00;100668.44;2091381;28;20044;-77
2022/07/22 03:17:19;;;;;;;9.70;2.33;;;;;;;22.67;54.97;100672.88;2100006;28;20044;-77
2022/07/22 03:18:41;;;;;;;5.75;2.35;;;;;;;22.67;55.00;100670.19;2094065;28;20092;-77
2022/07/22 03:20:05;;;;;;;12.75;2.42;;;;;;;22.71;55.04;100666.44;2102599;28;20047;-77
2022/07/22 03:21:28;;;;;;;14.60;2.75;;;;;;;22.74;55.25;100671.75;2102611;28;20048;-76
2022/07/22 03:22:50;;;;;;;8.77;2.25;;;;;;;22.77;55.13;100671.66;2102707;28;20044;-77
2022/07/22 03:24:13;;;;;;;6.47;2.28;;;;;;;22.78;55.14;100668.00;2104741;28;20094;-77
2022/07/22 03:25:38;;;;;;;5.35;2.50;;;;;;;22.80;55.10;100674.22;2094085;28;20517;-76
2022/07/22 03:27:00;;;;;;;7.65;2.42;;;;;;;22.82;55.17;100669.69;2096943;28;20064;-77
2022/07/22 03:28:24;;;;;;;6.15;2.15;;;;;;;22.78;55.13;100668.00;2100543;28;20485;-77
2022/07/22 03:29:48;;;;;;;5.70;2.20;;;;;;;22.76;55.12;100669.91;2096795;28;20557;-77
2022/07/22 03:31:11;;;;;;;4.85;2.17;;;;;;;22.77;55.19;100670.78;2108179;28;20036;-77
2022/07/22 03:32:33;;;;;;;5.15;2.20;;;;;;;22.77;55.30;100666.28;2104782;28;20478;-77
2022/07/22 03:33:54;;;;;;;7.22;2.20;;;;;;;22.79;55.43;100675.16;2096843;28;20586;-77
2022/07/22 03:35:17;;;;;;;8.77;2.35;;;;;;;22.81;55.36;100676.00;2094062;28;20045;-77
2022/07/22 03:36:41;;;;;;;6.57;2.65;;;;;;;22.82;55.52;100675.06;2094304;28;20454;-77
2022/07/22 03:38:05;;;;;;;5.10;2.05;;;;;;;22.88;55.39;100674.84;2091791;28;20097;-76
2022/07/22 03:39:29;;;;;;;6.57;2.05;;;;;;;22.92;55.42;100671.09;2091534;28;20081;-77
2022/07/22 03:40:52;;;;;;;6.28;2.15;;;;;;;22.98;55.44;100676.25;2091336;28;20525;-77
2022/07/22 03:42:13;;;;;;;4.30;2.30;;;;;;;23.05;55.33;100668.81;2091692;28;20047;-77
2022/07/22 03:43:42;;;;;;;6.45;2.60;;;;;;;23.12;55.24;100673.03;2093046;28;20589;-77
2022/07/22 03:45:05;;;;;;;4.55;2.17;;;;;;;23.19;55.17;100677.25;2102359;28;20051;-77
2022/07/22 03:46:31;;;;;;;8.07;2.30;;;;;;;23.28;54.96;100670.66;2094456;28;20048;-76
2022/07/22 03:47:56;;;;;;;5.88;2.05;;;;;;;23.36;54.71;100682.91;2099757;28;20036;-77
2022/07/22 03:49:19;;;;;;;3.30;2.03;;;;;;;23.43;54.65;100680.88;2109097;28;20066;-77
2022/07/22 03:50:41;;;;;;;8.18;2.15;;;;;;;23.52;54.52;100680.53;2102321;28;20441;-77
2022/07/22 03:52:05;;;;;;;7.07;1.85;;;;;;;23.61;54.43;100682.88;2099921;28;20044;-77
2022/07/22 03:53:29;;;;;;;3.75;2.00;;;;;;;23.72;54.23;100685.13;2107613;28;20641;-76
2022/07/22 03:54:51;;;;;;;5.90;1.90;;;;;;;23.83;54.36;100683.75;2111007;28;20058;-77
2022/07/22 03:56:14;;;;;;;5.78;1.95;;;;;;;23.96;54.05;100686.81;2102347;28;20036;-77
2022/07/22 03:57:35;;;;;;;5.85;2.35;;;;;;;24.09;53.92;100690.78;2108027;28;20052;-77
2022/07/22 03:59:04;;;;;;;8.95;2.60;;;;;;;24.23;53.88;100692.94;2104941;28;20047;-77
2022/07/22 04:00:26;;;;;;;3.75;2.00;;;;;;;24.35;53.68;100684.31;2102036;28;20040;-76
2022/07/22 04:01:48;;;;;;;4.38;2.03;;;;;;;24.47;53.38;100677.56;2102147;28;20182;-77
2022/07/22 04:03:10;;;;;;;8.13;2.10;;;;;;;24.57;53.16;100687.88;2099800;28;20582;-77
2022/07/22 04:04:47;;;;;;;7.93;2.30;;;;;;;24.68;53.07;100683.84;2112007;28;20050;-77
2022/07/22 04:06:10;;;;;;;5.93;1.60;;;;;;;24.80;52.76;100691.41;2102053;28;20051;-76
2022/07/22 04:07:40;;;;;;;9.85;3.03;;;;;;;24.92;52.75;100697.16;2101399;28;20048;-77
2022/07/22 04:09:05;;;;;;;5.93;2.00;;;;;;;25.03;52.48;100683.16;2099604;28;20157;-77
2022/07/22 04:10:29;;;;;;;6.18;2.10;;;;;;;25.12;52.31;100690.88;2100083;28;20044;-77
2022/07/22 04:11:52;;;;;;;4.47;1.83;;;;;;;25.25;52.14;100691.19;2099421;28;20056;-77
2022/07/22 04:13:14;;;;;;;5.20;2.45;;;;;;;25.39;52.06;100688.72;2099908;28;20432;-77
2022/07/22 04:14:51;;;;;;;4.78;2.20;;;;;;;25.56;51.86;100696.03;2103186;28;20067;-77
2022/07/22 04:16:14;;;;;;;6.47;2.08;;;;;;;25.68;51.81;100695.47;2099355;28;20394;-77
2022/07/22 04:17:45;;;;;;;8.60;2.20;;;;;;;25.80;51.51;100695.75;2102013;28;20067;-76
2022/07/22 04:19:07;;;;;;;4.90;2.20;;;;;;;25.94;51.64;100694.19;2099728;28;20380;-77
2022/07/22 04:20:56;;;;;;;6.70;2.03;;;;;;;26.09;51.20;100691.63;2113095;28;20136;-77
2022/07/22 04:22:27;;;;;;;4.97;1.80;;;;;;;26.18;50.93;100699.31;2102967;28;20079;-77
2022/07/22 04:23:49;;;;;;;10.38;2.83;;;;;;;26.27;50.88;100699.81;2099439;28;20062;-77
2022/07/22 04:25:21;;;;;;;3.60;1.73;;;;;;;26.42;50.63;100691.78;2101706;28;20039;-77
2022/07/22 04:26:44;;;;;;;5.68;1.65;;;;;;;26.55;50.22;100702.88;2099620;28;20059;-77
2022/07/22 04:28:06;;;;;;;5.78;1.90;;;;;;;26.68;49.97;100695.88;2098969;28;20138;-78
2022/07/22 04:29:29;;;;;;;7.43;2.28;;;;;;;26.84;49.54;100695.94;2110743;28;20126;-77
2022/07/22 04:30:51;;;;;;;2.22;1.50;;;;;;;26.99;49.39;100700.56;2101928;28;20044;-78
2022/07/22 04:32:13;;;;;;;3.85;1.70;;;;;;;27.15;49.03;100703.34;2107939;28;20536;-78
2022/07/22 04:33:35;;;;;;;7.63;2.28;;;;;;;27.30;48.78;100707.94;2104733;28;20055;-77
2022/07/22 04:34:58;;;;;;;3.78;1.77;;;;;;;27.45;48.57;100700.78;2099216;28;20815;-77
2022/07/22 04:36:21;;;;;;;6.45;2.05;;;;;;;27.63;48.11;100703.41;2101409;28;20040;-78
2022/07/22 04:37:44;;;;;;;2.95;1.52;;;;;;;27.83;47.85;100707.69;2102376;28;20052;-78
2022/07/22 04:39:07;;;;;;;8.40;2.10;;;;;;;28.00;47.48;100709.44;2110728;28;20112;-77
2022/07/22 04:40:32;;;;;;;4.65;2.17;;;;;;;28.19;47.04;100707.44;2104884;28;20761;-77
2022/07/22 04:41:55;;;;;;;4.53;1.80;;;;;;;28.34;46.74;100701.13;2111081;28;20511;-78
2022/07/22 04:43:18;;;;;;;7.90;2.58;;;;;;;28.52;46.58;100700.03;2107278;28;20052;-77
2022/07/22 04:44:41;;;;;;;9.40;1.95;;;;;;;28.69;46.25;100706.28;2104904;28;20044;-77
2022/07/22 04:46:03;;;;;;;4.95;1.75;;;;;;;28.87;45.89;100711.53;2110176;28;20039;-78
2022/07/22 04:47:29;;;;;;;3.60;1.75;;;;;;;29.05;45.60;100714.97;2106761;28;20708;-78
2022/07/22 04:48:50;;;;;;;6.10;1.60;;;;;;;29.22;45.35;100714.78;2098871;28;20064;-78
2022/07/22 04:50:13;;;;;;;6.32;1.73;;;;;;;29.40;45.07;100714.63;2093735;28;20127;-78
2022/07/22 04:51:35;;;;;;;7.30;1.77;;;;;;;29.60;44.69;100716.97;2093203;28;20110;-78
2022/07/22 04:53:01;;;;;;;3.55;1.48;;;;;;;29.80;44.37;100718.41;2094608;28;20140;-78
2022/07/22 04:54:23;;;;;;;2.92;1.55;;;;;;;29.98;44.13;100722.66;2093913;28;20615;-78
2022/07/22 04:55:50;;;;;;;6.90;1.73;;;;;;;30.18;43.52;100718.63;2103082;28;20391;-79
2022/07/22 04:57:12;;;;;;;3.53;1.83;;;;;;;30.35;42.92;100721.09;2105157;28;20052;-79
2022/07/22 04:58:34;;;;;;;6.32;1.98;;;;;;;30.50;42.42;100720.09;2096265;28;20398;-79
2022/07/22 04:59:57;;;;;;;5.40;2.00;;;;;;;30.65;42.21;100719.06;2104687;28;20100;-79
2022/07/22 05:01:21;;;;;;;6.35;1.75;;;;;;;30.83;41.53;100723.25;2096431;28;20048;-79
2022/07/22 05:02:46;;;;;;;5.07;1.90;;;;;;;31.06;41.53;100721.66;2096845;28;20056;-79
2022/07/22 05:04:07;;;;;;;8.02;1.95;;;;;;;31.25;40.99;100713.91;2102211;28;20490;-77
2022/07/22 05:05:30;;;;;;;7.38;1.77;;;;;;;31.46;40.50;100718.81;2096509;28;20090;-76
2022/07/22 05:06:52;;;;;;;3.72;1.58;;;;;;;31.62;40.19;100717.63;2101924;28;20486;-76
2022/07/22 05:08:13;;;;;;;4.40;1.40;;;;;;;31.75;39.94;100723.09;2096230;28;20048;-77
2022/07/22 05:09:36;;;;;;;6.93;1.55;;;;;;;31.96;39.35;100720.63;2093762;28;20037;-76
2022/07/22 05:11:00;;;;;;;5.60;1.40;;;;;;;32.19;38.93;100725.28;2093054;28;20052;-77
2022/07/22 05:12:23;;;;;;;6.72;1.67;;;;;;;32.42;38.61;100720.81;2093852;28;20095;-77
2022/07/22 05:13:44;;;;;;;5.07;1.73;;;;;;;32.63;38.25;100724.63;2093791;28;20071;-77
2022/07/22 05:15:07;;;;;;;5.80;1.33;;;;;;;32.81;37.93;100728.72;2093473;28;20048;-77
2022/07/22 05:16:30;;;;;;;4.53;1.60;;;;;;;33.05;37.67;100727.78;2096356;28;20044;-77
2022/07/22 05:17:51;;;;;;;5.50;1.35;;;;;;;33.27;37.22;100729.72;2093389;28;20048;-77
2022/07/22 05:19:23;;;;;;;6.30;1.58;;;;;;;33.44;36.71;100735.59;2095980;28;20108;-78
2022/07/22 05:20:46;;;;;;;4.60;1.40;;;;;;;33.63;36.01;100735.84;2096412;28;20075;-76
2022/07/22 05:22:09;;;;;;;4.68;1.45;;;;;;;33.75;35.15;100735.88;2094071;28;20530;-77
2022/07/22 05:23:32;;;;;;;4.65;1.80;;;;;;;33.85;34.60;100742.34;2102424;28;20443;-75
2022/07/22 05:24:54;;;;;;;8.80;2.55;;;;;;;34.01;34.51;100738.22;2103908;28;20044;-76
2022/07/22 05:26:18;;;;;;;5.65;1.85;;;;;;;34.24;34.28;100743.69;2101683;28;20043;-78
2022/07/22 05:27:52;;;;;;;5.35;1.42;;;;;;;34.42;33.94;100739.41;2102211;28;20039;-77
2022/07/22 05:29:16;;;;;;;6.82;1.63;;;;;;;34.55;33.91;100739.22;2114413;28;20082;-79
2022/07/22 05:30:41;;;;;;;6.65;1.85;;;;;;;34.63;33.61;100740.31;2104817;28;20047;-79
2022/07/22 05:32:04;;;;;;;4.85;1.77;;;;;;;34.73;33.70;100733.06;2110252;28;20050;-77
2022/07/22 05:33:27;;;;;;;6.57;1.80;;;;;;;34.84;33.46;100740.38;2104611;28;20098;-76
2022/07/22 05:34:52;;;;;;;5.53;1.30;;;;;;;35.00;33.38;100739.91;2111344;28;20404;-77
2022/07/22 05:36:14;;;;;;;5.18;1.60;;;;;;;35.14;33.33;100753.31;2107143;28;20124;-74
2022/07/22 05:37:41;;;;;;;3.85;1.60;;;;;;;35.26;33.19;100745.91;2105343;28;20079;-78
2022/07/22 05:39:04;;;;;;;6.07;1.52;;;;;;;35.31;33.03;100749.13;2104476;28;20143;-79
2022/07/22 05:40:28;;;;;;;3.78;1.45;;;;;;;35.35;33.13;100740.47;2102123;28;20044;-78
2022/07/22 05:41:52;;;;;;;4.57;1.60;;;;;;;35.41;32.72;100745.44;2102385;28;20361;-78
2022/07/22 05:43:14;;;;;;;6.63;1.45;;;;;;;35.44;32.64;100756.16;2102276;28;20036;-79
2022/07/22 05:44:37;;;;;;;5.00;1.55;;;;;;;35.50;32.88;100746.50;2104654;28;20079;-78
2022/07/22 05:45:59;;;;;;;4.85;1.65;;;;;;;35.59;32.85;100748.41;2104226;28;20032;-78
2022/07/22 05:47:21;;;;;;;5.90;1.48;;;;;;;35.65;32.78;100746.97;2101559;28;20036;-78
2022/07/22 05:48:44;;;;;;;5.45;1.65;;;;;;;35.64;32.76;100751.63;2099875;28;20486;-78
2022/07/22 05:50:08;;;;;;;5.53;1.77;;;;;;;35.60;32.61;100752.91;2100973;28;20039;-79
2022/07/22 05:51:31;;;;;;;6.82;2.20;;;;;;;35.65;32.63;100755.22;2101243;28;20052;-78
2022/07/22 05:52:54;;;;;;;4.10;1.40;;;;;;;35.73;32.56;100760.94;2108799;28;20079;-79
2022/07/22 05:54:17;;;;;;;7.13;1.52;;;;;;;35.84;32.58;100761.72;2103553;28;20516;-79
2022/07/22 05:55:39;;;;;;;3.55;1.30;;;;;;;36.03;32.10;100760.06;2100969;28;20524;-79
2022/07/22 05:57:03;;;;;;;5.53;1.50;;;;;;;36.03;31.70;100757.31;2111628;28;20527;-78
2022/07/22 05:58:24;;;;;;;3.03;1.40;;;;;;;35.80;32.16;100752.00;2103241;28;20094;-79
2022/07/22 05:59:47;;;;;;;5.97;1.40;;;;;;;35.78;32.25;100756.75;2100442;28;20505;-78
2022/07/22 06:01:11;;;;;;;7.65;1.65;;;;;;;35.90;32.29;100760.31;2109135;28;20035;-79
2022/07/22 06:02:33;;;;;;;7.10;1.38;;;;;;;35.90;32.02;100755.69;2103370;28;20066;-79
2022/07/22 06:03:56;;;;;;;5.30;1.60;;;;;;;36.02;31.85;100745.44;2100794;28;20069;-79
2022/07/22 06:05:19;;;;;;;5.88;1.90;;;;;;;36.19;31.55;100757.66;2090762;28;20068;-79
2022/07/22 06:06:43;;;;;;;6.30;1.40;;;;;;;36.25;31.46;100755.22;2092590;28;20141;-80
2022/07/22 06:08:04;;;;;;;6.78;1.42;;;;;;;36.37;31.33;100755.09;2091911;28;20048;-80
2022/07/22 06:09:38;;;;;;;9.93;3.28;;;;;;;36.52;31.23;100753.66;2095910;28;20057;-80
2022/07/22 06:10:59;;;;;;;4.80;1.40;;;;;;;36.67;30.87;100757.78;2094736;28;20045;-81
2022/07/22 06:12:23;;;;;;;4.53;1.73;;;;;;;36.78;30.72;100754.00;2092092;28;20638;-82
2022/07/22 06:13:46;;;;;;;5.45;1.42;;;;;;;36.63;30.89;100751.66;2091851;28;20048;-80
2022/07/22 06:15:09;;;;;;;5.68;1.75;;;;;;;36.57;30.96;100760.47;2100035;28;20134;-81
2022/07/22 06:16:34;;;;;;;6.72;1.60;;;;;;;36.61;30.95;100761.94;2095102;28;20102;-81
2022/07/22 06:17:57;;;;;;;5.78;1.98;;;;;;;36.71;30.66;100751.84;2092762;28;20075;-81
2022/07/22 06:19:20;;;;;;;5.80;1.40;;;;;;;36.83;30.39;100755.31;2092192;28;20064;-81
2022/07/22 06:20:43;;;;;;;6.43;2.08;;;;;;;36.97;30.10;100757.63;2091954;28;20048;-81
2022/07/22 06:22:05;;;;;;;2.65;1.60;;;;;;;37.06;30.03;100753.13;2091741;28;20036;-81
2022/07/22 06:23:28;;;;;;;5.30;1.67;;;;;;;37.02;29.90;100758.03;2091928;28;20864;-80
2022/07/22 06:24:50;;;;;;;4.13;1.65;;;;;;;36.86;30.16;100751.41;2091702;28;20694;-81
2022/07/22 06:26:13;;;;;;;6.03;1.67;;;;;;;36.73;29.92;100757.19;2092067;28;20147;-81
2022/07/22 06:27:37;;;;;;;3.40;1.30;;;;;;;36.63;30.05;100759.91;2085855;28;20065;-80